DLH1929 EDDM-EDDH
Flight info
| Callsign | DLH1929 |
|---|---|
| Flight time | N/A |
| Altitude | 36000 |
| Route | INPUD3Q/08L INPUD Y102 UPALA M726 NARUS DCT ABGUS DCT DIRBO/N0390F230 T902 RARUP RARUP6A |
| Aircraft | A321/M-SDE3FGHIRWY/LB1 |
Departure
| Time | 2026-04-30 20:27 |
|---|---|
| Airport | Munich Airport (EDDM) |
Arrival
| Time | N/A |
|---|---|
| Airport | Hamburg Helmut Schmidt Airport (EDDH) |
| Time | Latitude | Longitude | Altitude | Speed | Heading |
|---|---|---|---|---|---|
| 2026-04-30 19:28 | 48.35657 | 11.79707 | 1471 ft | 0 kts | 84° |
| 2026-04-30 20:04 | 48.35656 | 11.79690 | 1460 ft | 4 kts | 84° |
| 2026-04-30 20:04 | 48.35653 | 11.79650 | 1461 ft | 4 kts | 83° |
| 2026-04-30 20:04 | 48.35648 | 11.79611 | 1466 ft | 4 kts | 69° |
| 2026-04-30 20:05 | 48.35615 | 11.79561 | 1460 ft | 3 kts | 355° |
| 2026-04-30 20:05 | 48.35607 | 11.79562 | 1460 ft | 0 kts | 353° |
| 2026-04-30 20:12 | 48.35608 | 11.79562 | 1472 ft | 0 kts | 353° |
| 2026-04-30 20:13 | 48.35619 | 11.79560 | 1464 ft | 3 kts | 353° |
| 2026-04-30 20:13 | 48.35647 | 11.79555 | 1467 ft | 5 kts | 353° |
| 2026-04-30 20:13 | 48.35649 | 11.79555 | 1467 ft | 1 kts | 353° |
| 2026-04-30 20:13 | 48.35680 | 11.79550 | 1471 ft | 9 kts | 354° |
| 2026-04-30 20:14 | 48.35763 | 11.79536 | 1466 ft | 13 kts | 352° |
| 2026-04-30 20:14 | 48.35861 | 11.79519 | 1466 ft | 15 kts | 349° |
| 2026-04-30 20:14 | 48.35896 | 11.79483 | 1466 ft | 6 kts | 314° |
| 2026-04-30 20:14 | 48.35902 | 11.79420 | 1465 ft | 7 kts | 275° |
| 2026-04-30 20:15 | 48.35929 | 11.79354 | 1464 ft | 8 kts | 326° |
| 2026-04-30 20:15 | 48.35988 | 11.79336 | 1460 ft | 10 kts | 353° |
| 2026-04-30 20:15 | 48.36058 | 11.79320 | 1461 ft | 11 kts | 337° |
| 2026-04-30 20:15 | 48.36085 | 11.79223 | 1466 ft | 11 kts | 269° |
| 2026-04-30 20:16 | 48.36075 | 11.79071 | 1465 ft | 17 kts | 263° |
| 2026-04-30 20:16 | 48.36062 | 11.78893 | 1464 ft | 18 kts | 263° |
| 2026-04-30 20:16 | 48.36048 | 11.78705 | 1467 ft | 19 kts | 264° |
| 2026-04-30 20:16 | 48.36028 | 11.78454 | 1469 ft | 26 kts | 263° |
| 2026-04-30 20:17 | 48.36008 | 11.78187 | 1472 ft | 26 kts | 263° |
| 2026-04-30 20:17 | 48.35988 | 11.77916 | 1465 ft | 26 kts | 263° |
| 2026-04-30 20:17 | 48.35966 | 11.77643 | 1474 ft | 26 kts | 263° |
| 2026-04-30 20:17 | 48.35945 | 11.77370 | 1467 ft | 26 kts | 263° |
| 2026-04-30 20:18 | 48.35924 | 11.77108 | 1468 ft | 20 kts | 263° |
| 2026-04-30 20:18 | 48.35914 | 11.76977 | 1476 ft | 13 kts | 264° |
| 2026-04-30 20:18 | 48.35944 | 11.76862 | 1467 ft | 13 kts | 320° |
| 2026-04-30 20:18 | 48.36028 | 11.76820 | 1474 ft | 13 kts | 352° |
| 2026-04-30 20:19 | 48.36083 | 11.76810 | 1472 ft | 0 kts | 353° |
| 2026-04-30 20:20 | 48.36084 | 11.76809 | 1471 ft | 1 kts | 353° |
| 2026-04-30 20:20 | 48.36094 | 11.76808 | 1465 ft | 2 kts | 353° |
| 2026-04-30 20:20 | 48.36113 | 11.76804 | 1469 ft | 3 kts | 353° |
| 2026-04-30 20:20 | 48.36141 | 11.76798 | 1471 ft | 5 kts | 353° |
| 2026-04-30 20:21 | 48.36148 | 11.76797 | 1473 ft | 0 kts | 353° |
| 2026-04-30 20:21 | 48.36151 | 11.76797 | 1467 ft | 1 kts | 356° |
| 2026-04-30 20:21 | 48.36157 | 11.76797 | 1470 ft | 0 kts | 359° |
| 2026-04-30 20:24 | 48.36163 | 11.76797 | 1476 ft | 2 kts | 359° |
| 2026-04-30 20:24 | 48.36187 | 11.76801 | 1476 ft | 5 kts | 6° |
| 2026-04-30 20:25 | 48.36279 | 11.76882 | 1465 ft | 8 kts | 55° |
| 2026-04-30 20:25 | 48.36290 | 11.76939 | 1474 ft | 0 kts | 81° |
| 2026-04-30 20:26 | 48.36295 | 11.76996 | 1470 ft | 28 kts | 84° |
| 2026-04-30 20:26 | 48.36449 | 11.79067 | 1463 ft | 162 kts | 84° |
| 2026-04-30 20:26 | 48.36570 | 11.80895 | 1912 ft | 177 kts | 84° |
| 2026-04-30 20:27 | 48.36843 | 11.84476 | 3426 ft | 174 kts | 84° |
| 2026-04-30 20:27 | 48.38054 | 11.87795 | 3639 ft | 201 kts | 31° |
| 2026-04-30 20:28 | 48.41047 | 11.87616 | 3901 ft | 234 kts | 350° |
| 2026-04-30 20:28 | 48.43641 | 11.84285 | 4243 ft | 275 kts | 300° |
| 2026-04-30 20:29 | 48.45642 | 11.79247 | 4993 ft | 283 kts | 311° |
| 2026-04-30 20:30 | 48.49723 | 11.72755 | 7166 ft | 284 kts | 313° |
| 2026-04-30 20:30 | 48.53604 | 11.65807 | 9185 ft | 294 kts | 313° |
| 2026-04-30 20:31 | 48.58000 | 11.59320 | 11018 ft | 301 kts | 334° |
| 2026-04-30 20:32 | 48.64330 | 11.55543 | 11586 ft | 349 kts | 342° |
| 2026-04-30 20:32 | 48.68919 | 11.52902 | 12738 ft | 356 kts | 342° |
| 2026-04-30 20:33 | 48.71237 | 11.51559 | 13342 ft | 358 kts | 342° |
| 2026-04-30 20:33 | 48.75908 | 11.48836 | 14526 ft | 362 kts | 343° |
| 2026-04-30 20:33 | 48.78265 | 11.47464 | 15049 ft | 364 kts | 343° |
| 2026-04-30 20:34 | 48.83013 | 11.44709 | 16109 ft | 367 kts | 343° |
| 2026-04-30 20:34 | 48.87813 | 11.41921 | 17162 ft | 371 kts | 343° |
| 2026-04-30 20:35 | 48.90234 | 11.40511 | 17690 ft | 374 kts | 343° |
| 2026-04-30 20:35 | 48.92665 | 11.39090 | 18208 ft | 376 kts | 343° |
| 2026-04-30 20:35 | 48.97575 | 11.36216 | 19125 ft | 380 kts | 343° |
| 2026-04-30 20:36 | 49.00048 | 11.34763 | 19536 ft | 382 kts | 343° |
| 2026-04-30 20:36 | 49.02533 | 11.33303 | 19960 ft | 384 kts | 343° |
| 2026-04-30 20:36 | 49.07542 | 11.30354 | 20812 ft | 388 kts | 343° |
| 2026-04-30 20:37 | 49.10068 | 11.28871 | 21219 ft | 390 kts | 344° |
| 2026-04-30 20:37 | 49.12606 | 11.27383 | 21614 ft | 392 kts | 344° |
| 2026-04-30 20:37 | 49.15156 | 11.25882 | 22015 ft | 394 kts | 343° |
| 2026-04-30 20:37 | 49.17718 | 11.24367 | 22406 ft | 396 kts | 344° |
| 2026-04-30 20:38 | 49.20323 | 11.22971 | 22787 ft | 395 kts | 350° |
| 2026-04-30 20:38 | 49.23012 | 11.22248 | 23170 ft | 391 kts | 0° |
| 2026-04-30 20:38 | 49.25727 | 11.22180 | 23559 ft | 391 kts | 5° |
| 2026-04-30 20:39 | 49.31188 | 11.22239 | 24284 ft | 395 kts | 5° |
| 2026-04-30 20:39 | 49.33941 | 11.22259 | 24613 ft | 396 kts | 5° |
| 2026-04-30 20:39 | 49.36701 | 11.22277 | 24944 ft | 398 kts | 5° |
| 2026-04-30 20:40 | 49.42262 | 11.22314 | 25593 ft | 401 kts | 5° |
| 2026-04-30 20:40 | 49.45059 | 11.22335 | 25915 ft | 403 kts | 5° |
| 2026-04-30 20:40 | 49.47864 | 11.22358 | 26235 ft | 404 kts | 5° |
| 2026-04-30 20:41 | 49.53513 | 11.22406 | 26864 ft | 407 kts | 5° |
| 2026-04-30 20:41 | 49.56354 | 11.22430 | 27182 ft | 409 kts | 5° |
| 2026-04-30 20:41 | 49.59205 | 11.22445 | 27500 ft | 411 kts | 5° |
| 2026-04-30 20:41 | 49.62069 | 11.22451 | 27798 ft | 413 kts | 5° |
| 2026-04-30 20:42 | 49.64947 | 11.22452 | 28085 ft | 414 kts | 4° |
| 2026-04-30 20:42 | 49.67836 | 11.22452 | 28377 ft | 416 kts | 4° |
| 2026-04-30 20:42 | 49.73649 | 11.22462 | 28975 ft | 419 kts | 5° |
| 2026-04-30 20:43 | 49.76571 | 11.22472 | 29241 ft | 421 kts | 4° |
| 2026-04-30 20:43 | 49.79508 | 11.22483 | 29504 ft | 422 kts | 5° |
| 2026-04-30 20:43 | 49.82414 | 11.22495 | 29758 ft | 424 kts | 5° |
| 2026-04-30 20:44 | 49.88332 | 11.22534 | 30238 ft | 427 kts | 5° |
| 2026-04-30 20:44 | 49.91340 | 11.22555 | 30387 ft | 427 kts | 5° |
| 2026-04-30 20:45 | 50.03167 | 11.22621 | 30412 ft | 426 kts | 4° |
| 2026-04-30 20:45 | 50.09143 | 11.22652 | 30419 ft | 427 kts | 4° |
| 2026-04-30 20:46 | 50.18017 | 11.22481 | 31176 ft | 427 kts | 1° |
| 2026-04-30 20:46 | 50.20978 | 11.22193 | 31449 ft | 426 kts | 0° |
| 2026-04-30 20:47 | 50.26884 | 11.21492 | 31998 ft | 425 kts | 359° |
| 2026-04-30 20:47 | 50.29826 | 11.21147 | 32272 ft | 424 kts | 360° |
| 2026-04-30 20:48 | 50.35698 | 11.20538 | 32797 ft | 422 kts | 0° |
| 2026-04-30 20:48 | 50.38628 | 11.20259 | 33049 ft | 421 kts | 0° |
| 2026-04-30 20:48 | 50.41550 | 11.19980 | 33306 ft | 421 kts | 0° |
| 2026-04-30 20:48 | 50.44471 | 11.19701 | 33548 ft | 420 kts | 360° |
| 2026-04-30 20:49 | 50.47386 | 11.19422 | 33801 ft | 419 kts | 360° |
| 2026-04-30 20:49 | 50.50296 | 11.19138 | 34048 ft | 419 kts | 359° |
| 2026-04-30 20:49 | 50.53202 | 11.18852 | 34299 ft | 418 kts | 359° |
| 2026-04-30 20:50 | 50.59007 | 11.18281 | 34733 ft | 417 kts | 359° |
| 2026-04-30 20:50 | 50.61901 | 11.17994 | 34928 ft | 417 kts | 359° |
| 2026-04-30 20:50 | 50.64799 | 11.17707 | 35133 ft | 416 kts | 359° |
| 2026-04-30 20:50 | 50.67688 | 11.17419 | 35327 ft | 416 kts | 359° |
| 2026-04-30 20:51 | 50.70578 | 11.17130 | 35521 ft | 416 kts | 359° |
| 2026-04-30 20:51 | 50.76342 | 11.16558 | 35904 ft | 415 kts | 359° |
| 2026-04-30 20:51 | 50.79230 | 11.16279 | 36090 ft | 415 kts | 359° |
| 2026-04-30 20:52 | 50.82108 | 11.15999 | 36300 ft | 414 kts | 359° |
| 2026-04-30 20:52 | 50.84983 | 11.15716 | 36419 ft | 414 kts | 359° |
| 2026-04-30 20:53 | 50.93609 | 11.14854 | 36436 ft | 414 kts | 359° |
| 2026-04-30 20:53 | 50.99358 | 11.14272 | 36436 ft | 414 kts | 359° |
| 2026-04-30 20:54 | 51.07987 | 11.13412 | 36433 ft | 414 kts | 359° |
| 2026-04-30 20:55 | 51.16629 | 11.12527 | 36443 ft | 416 kts | 359° |
| 2026-04-30 20:55 | 51.22408 | 11.11945 | 36445 ft | 416 kts | 359° |
| 2026-04-30 20:56 | 51.31083 | 11.11065 | 36447 ft | 417 kts | 359° |
| 2026-04-30 20:57 | 51.39776 | 11.10180 | 36450 ft | 418 kts | 359° |
| 2026-04-30 20:57 | 51.45580 | 11.09589 | 36444 ft | 418 kts | 359° |
| 2026-04-30 20:58 | 51.54295 | 11.08704 | 36444 ft | 419 kts | 359° |
| 2026-04-30 20:58 | 51.60116 | 11.08101 | 36445 ft | 419 kts | 358° |
| 2026-04-30 20:59 | 51.68844 | 11.07199 | 36451 ft | 419 kts | 358° |
| 2026-04-30 21:00 | 51.80506 | 11.05983 | 36453 ft | 420 kts | 358° |
| 2026-04-30 21:01 | 51.89127 | 11.04985 | 36427 ft | 398 kts | 356° |
| 2026-04-30 21:02 | 51.97257 | 11.03194 | 36439 ft | 392 kts | 354° |
| 2026-04-30 21:02 | 52.02621 | 11.01947 | 36437 ft | 392 kts | 354° |
| 2026-04-30 21:03 | 52.08029 | 11.00772 | 36435 ft | 392 kts | 354° |
| 2026-04-30 21:03 | 52.13438 | 10.99640 | 36434 ft | 392 kts | 354° |
| 2026-04-30 21:04 | 52.18846 | 10.98479 | 36426 ft | 392 kts | 354° |
| 2026-04-30 21:04 | 52.26977 | 10.96721 | 36442 ft | 393 kts | 354° |
| 2026-04-30 21:05 | 52.32415 | 10.95544 | 35953 ft | 395 kts | 354° |
| 2026-04-30 21:05 | 52.35124 | 10.94960 | 35454 ft | 394 kts | 354° |
| 2026-04-30 21:05 | 52.37849 | 10.94377 | 34959 ft | 392 kts | 354° |